createdAt,value
2022-09-15T00:01:13.843Z,74.63
2022-09-15T00:03:43.603Z,79.13
2022-09-15T00:06:14.821Z,89.03
2022-09-15T00:08:44.414Z,75.07
2022-09-15T00:11:18.441Z,83.60
2022-09-15T00:13:48.483Z,87.43
2022-09-15T00:16:21.060Z,77.88
2022-09-15T00:21:25.032Z,102.88
2022-09-15T00:23:54.990Z,86.00
2022-09-15T00:26:27.517Z,91.65
2022-09-15T00:28:57.827Z,92.40
2022-09-15T00:31:32.727Z,96.50
2022-09-15T00:34:04.193Z,94.18
2022-09-15T00:36:33.683Z,88.70
2022-09-15T00:39:02.929Z,79.90
2022-09-15T00:41:32.886Z,81.47
2022-09-15T00:44:04.269Z,77.85
2022-09-15T00:46:38.198Z,87.20
2022-09-15T00:49:15.387Z,82.22
2022-09-15T00:51:54.065Z,72.07
2022-09-15T00:54:28.274Z,73.30
2022-09-15T00:57:01.141Z,88.20
2022-09-15T00:59:35.118Z,100.97
2022-09-15T01:02:13.729Z,119.07
2022-09-15T01:04:43.154Z,116.50
2022-09-15T01:07:18.003Z,105.55
2022-09-15T01:09:54.513Z,91.60
2022-09-15T01:12:25.407Z,91.82
2022-09-15T01:14:54.683Z,96.28
2022-09-15T01:17:39.355Z,70.75
2022-09-15T01:20:55.558Z,104.90
2022-09-15T01:24:35.766Z,77.97
2022-09-15T01:27:41.690Z,91.45
2022-09-15T01:30:16.662Z,85.65
2022-09-15T01:33:22.519Z,78.30
2022-09-15T01:36:00.347Z,91.00
2022-09-15T01:38:55.810Z,71.43
2022-09-15T01:41:31.588Z,90.03
2022-09-15T01:44:07.713Z,89.60
2022-09-15T01:46:47.184Z,97.28
2022-09-15T01:49:21.293Z,121.03
2022-09-15T01:51:54.852Z,96.35
2022-09-15T01:54:30.886Z,109.53
2022-09-15T01:57:00.364Z,74.30
2022-09-15T01:59:29.939Z,105.15
2022-09-15T02:02:05.895Z,115.10
2022-09-15T02:04:41.937Z,85.38
2022-09-15T02:07:17.255Z,103.75
2022-09-15T02:09:52.396Z,113.90
2022-09-15T02:12:33.215Z,79.30
2022-09-15T02:15:08.777Z,105.25
2022-09-15T02:17:47.287Z,100.20
2022-09-15T02:20:23.865Z,87.57
2022-09-15T02:23:02.188Z,100.22
2022-09-15T02:25:36.082Z,99.68
2022-09-15T02:28:11.195Z,108.30
2022-09-15T02:30:44.200Z,85.13
2022-09-15T02:33:20.775Z,101.50
2022-09-15T02:35:51.950Z,93.50
2022-09-15T02:38:21.822Z,91.38
2022-09-15T02:40:51.155Z,79.63
2022-09-15T02:43:20.263Z,90.22
2022-09-15T02:45:49.750Z,88.75
2022-09-15T02:48:20.556Z,110.65
2022-09-15T02:50:49.724Z,99.30
2022-09-15T02:53:18.915Z,86.82
2022-09-15T02:55:47.997Z,75.10
2022-09-15T02:58:17.173Z,93.00
2022-09-15T03:00:46.365Z,122.85
2022-09-15T03:03:15.562Z,97.25
2022-09-15T03:05:46.087Z,98.95
2022-09-15T03:08:15.275Z,104.57
2022-09-15T03:10:44.443Z,112.45
2022-09-15T03:13:13.606Z,120.43
2022-09-15T03:15:43.251Z,119.10
2022-09-15T03:18:13.267Z,117.93
2022-09-15T03:20:42.433Z,93.32
2022-09-15T03:23:13.108Z,99.10
2022-09-15T03:25:42.232Z,101.85
2022-09-15T03:28:11.315Z,102.63
2022-09-15T03:30:40.660Z,82.57
2022-09-15T03:33:09.740Z,91.65
2022-09-15T03:35:39.471Z,94.40
2022-09-15T03:38:08.624Z,80.70
2022-09-15T03:40:39.226Z,92.57
2022-09-15T03:43:08.402Z,91.30
2022-09-15T03:45:38.025Z,70.35
2022-09-15T03:48:08.764Z,94.80
2022-09-15T03:50:37.892Z,79.60
2022-09-15T03:53:07.122Z,55.20
2022-09-15T03:55:36.329Z,89.65
2022-09-15T03:58:06.822Z,56.85
2022-09-15T04:00:36.221Z,56.88
2022-09-15T04:03:06.875Z,81.95
2022-09-15T04:05:36.798Z,29.70
2022-09-15T04:08:06.602Z,39.85
2022-09-15T04:10:39.006Z,48.40
2022-09-15T04:13:09.829Z,35.85
2022-09-15T04:15:38.985Z,71.45
2022-09-15T04:18:08.187Z,53.03
2022-09-15T04:20:40.759Z,54.17
2022-09-15T04:23:09.878Z,28.50
2022-09-15T04:25:39.003Z,31.08
2022-09-15T04:28:09.544Z,31.58
2022-09-15T04:30:38.790Z,37.47
2022-09-15T04:33:08.363Z,42.75
2022-09-15T04:35:37.653Z,43.63
2022-09-15T04:38:06.787Z,43.10
2022-09-15T04:40:35.950Z,28.23
2022-09-15T04:43:06.680Z,23.88
2022-09-15T04:45:37.220Z,27.45
2022-09-15T04:48:06.468Z,31.60
2022-09-15T04:50:35.666Z,29.38
2022-09-15T04:53:04.953Z,27.35
2022-09-15T04:55:34.286Z,29.00
2022-09-15T04:58:04.134Z,18.80
2022-09-15T05:00:43.672Z,29.80
2022-09-15T05:03:14.253Z,40.35
2022-09-15T05:05:43.530Z,28.73
2022-09-15T05:08:12.627Z,20.60
2022-09-15T05:10:41.741Z,21.17
2022-09-15T05:13:10.839Z,21.25
2022-09-15T05:15:41.530Z,28.83
2022-09-15T05:18:10.789Z,24.95
2022-09-15T05:20:40.078Z,24.80
2022-09-15T05:23:09.329Z,31.10
2022-09-15T05:25:38.853Z,22.75
2022-09-15T05:28:08.657Z,23.98
2022-09-15T05:30:44.547Z,29.50
2022-09-15T05:33:13.992Z,30.20
2022-09-15T05:35:52.690Z,28.05
2022-09-15T05:38:22.174Z,38.80
2022-09-15T05:40:51.826Z,23.77
2022-09-15T05:43:21.556Z,29.75
2022-09-15T05:45:57.531Z,27.38
2022-09-15T05:48:27.303Z,25.27
2022-09-15T05:50:58.327Z,27.17
2022-09-15T05:53:28.403Z,28.42
2022-09-15T05:55:58.605Z,26.73
2022-09-15T05:58:28.621Z,40.95
2022-09-15T06:01:05.329Z,24.95
2022-09-15T06:03:35.432Z,25.85
2022-09-15T06:06:06.490Z,29.88
2022-09-15T06:08:40.516Z,37.63
2022-09-15T06:11:16.279Z,25.25
2022-09-15T06:13:46.890Z,22.63
2022-09-15T06:16:20.644Z,44.22
2022-09-15T06:18:52.311Z,35.35
2022-09-15T06:21:24.353Z,26.73
2022-09-15T06:23:56.450Z,51.00
2022-09-15T06:26:26.842Z,29.33
2022-09-15T06:28:58.502Z,48.45
2022-09-15T06:31:32.995Z,36.40
2022-09-15T06:34:04.130Z,37.75
2022-09-15T06:36:34.105Z,47.95
2022-09-15T06:39:03.623Z,49.15
2022-09-15T06:41:58.332Z,49.42
2022-09-15T06:44:22.376Z,41.13
2022-09-15T06:46:52.912Z,58.35
2022-09-15T06:49:22.902Z,53.30
2022-09-15T06:51:52.620Z,61.72
2022-09-15T06:54:22.535Z,64.50
2022-09-15T06:56:53.097Z,59.78
2022-09-15T06:59:24.390Z,70.93
2022-09-15T07:01:56.200Z,49.50
2022-09-15T07:04:25.358Z,77.47
2022-09-15T07:06:54.576Z,74.65
2022-09-15T07:09:23.831Z,71.55
2022-09-15T07:11:52.946Z,85.45
2022-09-15T07:14:22.241Z,96.15
2022-09-15T07:16:51.448Z,103.47
2022-09-15T07:19:21.985Z,83.13
2022-09-15T07:21:52.897Z,95.68
2022-09-15T07:24:22.136Z,83.72
2022-09-15T07:26:52.119Z,91.88
2022-09-15T07:29:21.304Z,98.60
2022-09-15T07:31:50.813Z,98.10
2022-09-15T07:34:21.360Z,95.22
2022-09-15T07:36:50.882Z,96.70
2022-09-15T07:39:20.067Z,77.95
2022-09-15T07:41:49.188Z,92.28
2022-09-15T07:44:18.383Z,100.13
2022-09-15T07:46:47.508Z,99.35
2022-09-15T07:49:17.682Z,79.75
2022-09-15T07:51:48.296Z,94.35
2022-09-15T07:54:21.985Z,85.82
2022-09-15T07:56:52.128Z,75.22
2022-09-15T07:59:21.308Z,67.82
2022-09-15T08:01:51.323Z,64.32
2022-09-15T08:04:20.489Z,72.78
2022-09-15T08:06:52.760Z,74.07
2022-09-15T08:09:22.080Z,61.30
2022-09-15T08:11:51.188Z,59.72
2022-09-15T08:14:20.364Z,65.07
2022-09-15T08:16:49.629Z,80.15
2022-09-15T08:19:19.743Z,56.75
2022-09-15T08:21:50.652Z,59.30
2022-09-15T08:24:19.737Z,67.70
2022-09-15T08:26:48.868Z,91.13
2022-09-15T08:29:18.804Z,74.30
2022-09-15T08:31:48.753Z,117.80
2022-09-15T08:34:19.194Z,171.57
2022-09-15T08:36:48.305Z,126.68
2022-09-15T08:39:18.961Z,173.93
2022-09-15T08:41:51.682Z,160.45
2022-09-15T08:44:33.389Z,153.35
2022-09-15T08:47:11.416Z,139.65
2022-09-15T08:49:57.431Z,159.90
2022-09-15T08:52:34.681Z,87.30
2022-09-15T08:55:14.719Z,121.10
2022-09-15T08:57:45.028Z,98.57
2022-09-15T09:00:18.043Z,115.20
2022-09-15T09:03:14.658Z,139.93
2022-09-15T09:06:00.033Z,57.45
2022-09-15T09:09:13.491Z,82.05
2022-09-15T09:14:40.944Z,57.90
2022-09-15T09:20:33.471Z,44.95
2022-09-15T09:23:08.901Z,66.75
2022-09-15T09:25:38.853Z,67.03
2022-09-15T09:28:25.463Z,89.75
2022-09-15T09:30:56.155Z,72.20
2022-09-15T09:33:32.292Z,91.72
2022-09-15T09:36:02.533Z,111.80
2022-09-15T09:38:39.118Z,157.55
2022-09-15T09:41:14.894Z,149.48
2022-09-15T09:43:47.688Z,119.13
2022-09-15T09:46:20.387Z,170.55
2022-09-15T09:48:56.433Z,153.27
2022-09-15T09:51:35.997Z,145.40
2022-09-15T09:54:28.329Z,191.82
2022-09-15T09:57:19.154Z,152.15
2022-09-15T09:59:51.092Z,127.53
2022-09-15T10:02:22.942Z,143.85
2022-09-15T10:04:54.272Z,170.63
2022-09-15T10:07:27.242Z,133.23
2022-09-15T10:09:59.528Z,136.80
2022-09-15T10:12:33.285Z,144.70
2022-09-15T10:15:08.123Z,134.35
2022-09-15T10:17:44.077Z,152.40
2022-09-15T10:20:28.567Z,155.27
2022-09-15T10:23:07.173Z,139.98
2022-09-15T10:28:29.177Z,142.85
2022-09-15T10:31:05.460Z,129.50
2022-09-15T10:33:36.937Z,171.88
2022-09-15T10:36:13.034Z,146.02
2022-09-15T10:38:46.725Z,127.07
2022-09-15T10:41:29.199Z,149.63
2022-09-15T10:44:31.073Z,133.63
2022-09-15T10:47:14.005Z,137.95
2022-09-15T10:50:01.482Z,117.70
2022-09-15T10:52:43.626Z,122.15
2022-09-15T10:55:51.124Z,116.13
2022-09-15T10:58:41.070Z,188.23
2022-09-15T11:01:41.285Z,140.17
2022-09-15T11:05:10.399Z,108.88
2022-09-15T11:07:49.187Z,126.10
2022-09-15T11:10:26.504Z,148.50
2022-09-15T11:13:05.378Z,141.85
2022-09-15T11:15:56.729Z,135.52
2022-09-15T11:18:54.689Z,143.07
2022-09-15T11:21:31.173Z,125.75
2022-09-15T11:24:32.972Z,119.90
2022-09-15T11:27:12.543Z,90.38
2022-09-15T11:30:02.968Z,86.22
2022-09-15T11:32:42.662Z,155.43
2022-09-15T11:35:40.362Z,114.13
2022-09-15T11:38:29.650Z,91.35
2022-09-15T11:41:16.546Z,126.68
2022-09-15T11:44:00.246Z,106.57
2022-09-15T11:46:46.995Z,99.65
2022-09-15T11:49:21.917Z,127.25
2022-09-15T11:51:58.299Z,96.78
2022-09-15T11:54:38.828Z,82.43
2022-09-15T11:57:16.257Z,133.60
2022-09-15T11:59:53.149Z,120.68
2022-09-15T12:02:40.056Z,145.30
2022-09-15T12:05:15.168Z,113.68
2022-09-15T12:07:51.378Z,155.95
2022-09-15T12:10:27.846Z,139.05
2022-09-15T12:12:57.702Z,151.80
2022-09-15T12:15:28.333Z,152.48
2022-09-15T12:18:37.086Z,168.00
2022-09-15T12:21:13.109Z,122.53
2022-09-15T12:23:46.658Z,128.20
2022-09-15T12:26:21.504Z,116.68
2022-09-15T12:28:57.808Z,173.00
2022-09-15T12:31:36.841Z,158.55
2022-09-15T12:34:25.317Z,162.38
2022-09-15T12:36:56.691Z,132.20
2022-09-15T12:39:32.937Z,125.45
2022-09-15T12:42:21.653Z,139.55
2022-09-15T12:44:55.908Z,126.78
2022-09-15T12:47:39.434Z,149.25
2022-09-15T12:50:29.016Z,184.73
2022-09-15T12:53:02.337Z,160.38
2022-09-15T12:55:36.592Z,162.30
2022-09-15T12:58:16.493Z,184.02
2022-09-15T13:01:16.649Z,153.85
2022-09-15T13:04:24.170Z,175.75
2022-09-15T13:07:37.280Z,143.88
2022-09-15T13:10:35.871Z,145.88
2022-09-15T13:13:33.411Z,135.50
2022-09-15T13:16:03.766Z,156.43
2022-09-15T13:18:35.146Z,154.88
2022-09-15T13:21:13.941Z,165.43
2022-09-15T13:23:48.317Z,141.77
2022-09-15T13:26:24.403Z,150.65
2022-09-15T13:28:59.058Z,126.30
2022-09-15T13:31:40.227Z,156.90
2022-09-15T13:35:20.731Z,178.40
2022-09-15T13:38:31.598Z,159.48
2022-09-15T13:41:40.252Z,205.85
2022-09-15T13:44:55.794Z,236.63
2022-09-15T13:47:39.331Z,122.38
2022-09-15T13:50:18.300Z,167.75
2022-09-15T13:53:09.021Z,125.35
2022-09-15T13:55:39.704Z,149.05
2022-09-15T14:01:08.703Z,126.53
2022-09-15T14:03:45.575Z,133.27
2022-09-15T14:06:18.861Z,144.93
2022-09-15T14:08:53.653Z,134.70
2022-09-15T14:11:28.725Z,156.73
2022-09-15T14:14:00.748Z,120.53
2022-09-15T14:16:37.524Z,120.28
2022-09-15T14:19:34.108Z,121.95
2022-09-15T14:22:19.253Z,138.02
2022-09-15T14:24:48.872Z,112.65
2022-09-15T14:27:25.658Z,90.30
2022-09-15T14:29:58.223Z,109.05
2022-09-15T14:32:31.562Z,87.07
2022-09-15T14:35:05.585Z,93.72
2022-09-15T14:37:35.203Z,132.90
2022-09-15T14:40:23.968Z,143.13
2022-09-15T14:42:53.269Z,117.85
2022-09-15T14:48:18.985Z,109.07
2022-09-15T14:50:59.442Z,115.82
2022-09-15T14:53:31.551Z,101.53
2022-09-15T14:56:08.477Z,129.48
2022-09-15T14:58:43.290Z,88.03
2022-09-15T15:01:18.152Z,107.05
2022-09-15T15:03:57.307Z,143.52
2022-09-15T15:06:32.827Z,124.22
2022-09-15T15:09:07.655Z,120.78
2022-09-15T15:11:39.682Z,102.68
2022-09-15T15:14:12.557Z,135.20
2022-09-15T15:16:52.858Z,108.65
2022-09-15T15:19:36.315Z,115.57
2022-09-15T15:22:17.302Z,91.68
2022-09-15T15:24:50.100Z,96.30
2022-09-15T15:27:43.833Z,149.77
2022-09-15T15:30:47.130Z,122.35
2022-09-15T15:33:25.593Z,106.47
2022-09-15T15:36:08.971Z,137.60
2022-09-15T15:38:47.201Z,144.25
2022-09-15T15:41:23.221Z,133.40
2022-09-15T15:44:08.205Z,154.60
2022-09-15T15:46:53.319Z,147.65
2022-09-15T15:49:27.501Z,153.77
2022-09-15T15:51:59.639Z,145.77
2022-09-15T15:54:29.532Z,124.22
2022-09-15T15:57:23.323Z,166.73
2022-09-15T15:59:57.652Z,123.57
2022-09-15T16:02:28.569Z,134.55
2022-09-15T16:04:57.743Z,139.95
2022-09-15T16:07:33.129Z,171.57
2022-09-15T16:10:03.665Z,129.18
2022-09-15T16:12:34.810Z,142.20
2022-09-15T16:15:13.160Z,104.95
2022-09-15T16:17:46.013Z,136.95
2022-09-15T16:20:16.991Z,102.03
2022-09-15T16:22:47.534Z,164.85
2022-09-15T16:25:19.982Z,193.80
2022-09-15T16:27:49.124Z,123.00
2022-09-15T16:30:18.397Z,134.07
2022-09-15T16:32:47.488Z,116.50
2022-09-15T16:35:28.209Z,114.72
2022-09-15T16:37:58.902Z,164.75
2022-09-15T16:40:28.371Z,147.38
2022-09-15T16:42:57.573Z,139.27
2022-09-15T16:45:36.516Z,162.75
2022-09-15T16:48:09.220Z,142.68
2022-09-15T16:50:42.657Z,136.73
2022-09-15T16:53:18.992Z,146.73
2022-09-15T16:55:49.755Z,194.90
2022-09-15T16:58:22.248Z,150.05
2022-09-15T17:00:53.764Z,164.00
2022-09-15T17:03:25.698Z,146.00
2022-09-15T17:05:57.522Z,155.73
2022-09-15T17:08:30.588Z,182.52
2022-09-15T17:11:01.956Z,146.23
2022-09-15T17:13:33.590Z,170.68
2022-09-15T17:16:04.020Z,116.47
2022-09-15T17:18:33.415Z,134.07
2022-09-15T17:21:02.558Z,139.27
2022-09-15T17:23:38.105Z,172.80
2022-09-15T17:26:12.534Z,160.80
2022-09-15T17:28:42.320Z,171.50
2022-09-15T17:31:16.685Z,127.15
2022-09-15T17:33:46.782Z,134.40
2022-09-15T17:36:16.219Z,137.38
2022-09-15T17:38:48.955Z,142.27
2022-09-15T17:41:20.677Z,159.90
2022-09-15T17:43:50.004Z,127.72
2022-09-15T17:46:19.124Z,108.63
2022-09-15T17:48:48.523Z,119.20
2022-09-15T17:51:18.498Z,108.90
2022-09-15T17:53:49.255Z,108.65
2022-09-15T17:56:18.453Z,123.20
2022-09-15T17:58:47.611Z,99.60
2022-09-15T18:01:17.506Z,166.57
2022-09-15T18:03:47.168Z,111.70
2022-09-15T18:06:16.326Z,134.57
2022-09-15T18:08:45.937Z,107.65
2022-09-15T18:11:16.835Z,93.13
2022-09-15T18:13:46.096Z,100.32
2022-09-15T18:16:16.089Z,105.88
2022-09-15T18:18:45.385Z,107.53
2022-09-15T18:21:27.009Z,96.78
2022-09-15T18:23:56.175Z,67.20
2022-09-15T18:26:27.040Z,74.05
2022-09-15T18:28:56.400Z,117.05
2022-09-15T18:31:25.583Z,89.32
2022-09-15T18:33:54.938Z,107.68
2022-09-15T18:36:24.098Z,74.00
2022-09-15T18:38:53.338Z,92.53
2022-09-15T18:41:22.743Z,135.50
2022-09-15T18:43:53.288Z,79.57
2022-09-15T18:46:22.615Z,111.32
2022-09-15T18:48:51.785Z,101.43
2022-09-15T18:51:29.088Z,139.05
2022-09-15T18:54:04.401Z,134.02
2022-09-15T18:56:33.705Z,102.97
2022-09-15T18:59:04.355Z,80.25
2022-09-15T19:01:34.827Z,99.72
2022-09-15T19:04:04.404Z,79.90
2022-09-15T19:06:33.666Z,81.90
2022-09-15T19:09:02.889Z,75.07
2022-09-15T19:11:32.202Z,91.65
2022-09-15T19:14:03.232Z,70.47
2022-09-15T19:16:53.904Z,79.43
2022-09-15T19:19:22.498Z,70.82
2022-09-15T19:21:51.754Z,83.18
2022-09-15T19:24:21.433Z,81.28
2022-09-15T19:26:50.633Z,65.50
2022-09-15T19:29:21.244Z,76.07
2022-09-15T19:31:50.510Z,77.20
2022-09-15T19:34:19.806Z,67.85
2022-09-15T19:36:49.020Z,76.30
2022-09-15T19:39:18.335Z,72.15
2022-09-15T19:41:47.560Z,78.45
2022-09-15T19:44:17.258Z,72.93
2022-09-15T19:46:48.479Z,67.30
2022-09-15T19:49:17.799Z,73.57
2022-09-15T19:51:47.180Z,70.03
2022-09-15T19:54:16.375Z,73.97
2022-09-15T19:56:45.576Z,74.65
2022-09-15T19:59:14.824Z,83.78
2022-09-15T20:01:44.467Z,96.32
2022-09-15T20:04:15.867Z,76.25
2022-09-15T20:06:45.154Z,76.40
2022-09-15T20:09:14.376Z,87.00
2022-09-15T20:11:43.694Z,67.70
2022-09-15T20:14:12.907Z,74.95
2022-09-15T20:16:42.599Z,77.53
2022-09-15T20:19:11.890Z,83.43
2022-09-15T20:21:51.343Z,82.72
2022-09-15T20:24:21.963Z,70.72
2022-09-15T20:26:51.579Z,71.85
2022-09-15T20:29:21.604Z,75.00
2022-09-15T20:31:50.771Z,72.25
2022-09-15T20:34:20.138Z,68.68
2022-09-15T20:36:50.988Z,65.13
2022-09-15T20:39:22.473Z,73.80
2022-09-15T20:41:51.878Z,80.22
2022-09-15T20:44:20.995Z,66.07
2022-09-15T20:46:50.221Z,74.38
2022-09-15T20:49:19.800Z,74.63
2022-09-15T20:51:51.745Z,114.50
2022-09-15T20:54:21.068Z,70.90
2022-09-15T20:56:50.252Z,63.08
2022-09-15T20:59:19.587Z,109.40
2022-09-15T21:01:49.140Z,75.05
2022-09-15T21:04:19.120Z,74.18
2022-09-15T21:06:50.046Z,87.97
2022-09-15T21:09:19.288Z,99.50
2022-09-15T21:11:53.277Z,79.85
2022-09-15T21:14:22.948Z,70.22
2022-09-15T21:16:52.208Z,62.92
2022-09-15T21:19:21.450Z,102.18
2022-09-15T21:21:52.055Z,70.65
2022-09-15T21:24:24.552Z,63.13
2022-09-15T21:27:11.291Z,74.60
2022-09-15T21:29:41.015Z,76.78
2022-09-15T21:32:10.233Z,96.40
2022-09-15T21:34:39.570Z,95.88
2022-09-15T21:37:10.444Z,96.28
2022-09-15T21:39:39.704Z,99.93
2022-09-15T21:42:10.286Z,66.03
2022-09-15T21:44:39.457Z,77.63
2022-09-15T21:47:09.048Z,73.03
2022-09-15T21:49:38.313Z,69.40
2022-09-15T21:52:11.452Z,76.10
2022-09-15T21:54:40.739Z,78.57
2022-09-15T21:57:10.397Z,82.07
2022-09-15T21:59:39.773Z,76.97
2022-09-15T22:02:11.744Z,99.30
2022-09-15T22:04:41.045Z,99.25
2022-09-15T22:07:11.764Z,97.47
2022-09-15T22:09:41.043Z,70.97
2022-09-15T22:12:10.710Z,87.20
2022-09-15T22:14:39.936Z,87.47
2022-09-15T22:17:09.203Z,100.55
2022-09-15T22:19:38.379Z,113.53
2022-09-15T22:22:08.269Z,88.47
2022-09-15T22:24:39.182Z,82.60
2022-09-15T22:27:08.412Z,86.65
2022-09-15T22:29:37.565Z,99.68
2022-09-15T22:32:09.536Z,82.57
2022-09-15T22:34:38.949Z,107.15
2022-09-15T22:37:08.214Z,99.05
2022-09-15T22:39:58.144Z,111.57
2022-09-15T22:42:28.574Z,87.63
2022-09-15T22:45:01.037Z,91.63
2022-09-15T22:47:30.223Z,96.10
2022-09-15T22:49:59.885Z,94.25
2022-09-15T22:52:29.089Z,120.53
2022-09-15T22:55:04.672Z,110.95
2022-09-15T22:57:37.333Z,125.68
2022-09-15T23:00:08.664Z,75.30
2022-09-15T23:02:40.561Z,101.97
2022-09-15T23:05:10.718Z,121.97
2022-09-15T23:07:40.003Z,91.15
2022-09-15T23:10:15.777Z,99.43
2022-09-15T23:12:45.399Z,123.00
2022-09-15T23:15:15.089Z,120.43
2022-09-15T23:17:44.354Z,143.88
2022-09-15T23:20:19.945Z,102.45
2022-09-15T23:22:49.078Z,103.10
2022-09-15T23:25:19.767Z,90.97
2022-09-15T23:27:48.910Z,110.07
2022-09-15T23:30:18.836Z,117.13
2022-09-15T23:32:48.027Z,106.88
2022-09-15T23:35:17.254Z,136.20
2022-09-15T23:37:46.419Z,105.30
2022-09-15T23:40:15.904Z,102.15
2022-09-15T23:42:46.579Z,105.65
2022-09-15T23:45:15.919Z,109.80
2022-09-15T23:47:45.116Z,133.55
2022-09-15T23:50:14.254Z,117.07
2022-09-15T23:52:43.361Z,105.63
2022-09-15T23:55:12.812Z,88.72
2022-09-15T23:57:42.073Z,105.47
